sensor_id;sensor_type;location;lat;lon;timestamp;temperature;humidity
25280;DHT22;13225;47.804;12.116;2023-05-31T00:01:13;11.70;99.90
25280;DHT22;13225;47.804;12.116;2023-05-31T00:03:39;11.60;99.90
25280;DHT22;13225;47.804;12.116;2023-05-31T00:06:12;11.60;99.90
25280;DHT22;13225;47.804;12.116;2023-05-31T00:08:38;11.80;99.90
25280;DHT22;13225;47.804;12.116;2023-05-31T00:11:05;11.80;99.90
25280;DHT22;13225;47.804;12.116;2023-05-31T00:13:31;12.00;99.90
25280;DHT22;13225;47.804;12.116;2023-05-31T00:15:57;12.00;99.90
25280;DHT22;13225;47.804;12.116;2023-05-31T00:18:23;11.90;99.90
25280;DHT22;13225;47.804;12.116;2023-05-31T00:20:49;11.80;99.90
25280;DHT22;13225;47.804;12.116;2023-05-31T00:23:15;11.70;99.90
25280;DHT22;13225;47.804;12.116;2023-05-31T00:25:40;11.70;99.90
25280;DHT22;13225;47.804;12.116;2023-05-31T00:28:06;11.60;99.90
25280;DHT22;13225;47.804;12.116;2023-05-31T00:30:31;11.50;99.90
25280;DHT22;13225;47.804;12.116;2023-05-31T00:32:57;11.60;99.90
25280;DHT22;13225;47.804;12.116;2023-05-31T00:35:23;11.60;99.90
25280;DHT22;13225;47.804;12.116;2023-05-31T00:37:48;11.50;99.90
25280;DHT22;13225;47.804;12.116;2023-05-31T00:40:14;11.40;99.90
25280;DHT22;13225;47.804;12.116;2023-05-31T00:42:39;11.30;99.90
25280;DHT22;13225;47.804;12.116;2023-05-31T00:45:06;11.30;99.90
25280;DHT22;13225;47.804;12.116;2023-05-31T00:47:32;11.20;99.90
25280;DHT22;13225;47.804;12.116;2023-05-31T00:49:58;11.30;99.90
25280;DHT22;13225;47.804;12.116;2023-05-31T00:52:25;11.20;99.90
25280;DHT22;13225;47.804;12.116;2023-05-31T00:54:53;11.30;99.90
25280;DHT22;13225;47.804;12.116;2023-05-31T00:57:19;11.30;99.90
25280;DHT22;13225;47.804;12.116;2023-05-31T00:59:44;11.20;99.90
25280;DHT22;13225;47.804;12.116;2023-05-31T01:02:10;11.20;99.90
25280;DHT22;13225;47.804;12.116;2023-05-31T01:04:39;11.20;99.90
25280;DHT22;13225;47.804;12.116;2023-05-31T01:07:06;11.10;99.90
25280;DHT22;13225;47.804;12.116;2023-05-31T01:09:32;11.10;99.90
25280;DHT22;13225;47.804;12.116;2023-05-31T01:12:09;11.10;99.90
25280;DHT22;13225;47.804;12.116;2023-05-31T01:17:24;11.00;99.90
25280;DHT22;13225;47.804;12.116;2023-05-31T01:19:59;10.90;99.90
25280;DHT22;13225;47.804;12.116;2023-05-31T01:28:12;10.80;99.90
25280;DHT22;13225;47.804;12.116;2023-05-31T01:30:39;10.70;99.90
25280;DHT22;13225;47.804;12.116;2023-05-31T01:33:09;10.70;99.90
25280;DHT22;13225;47.804;12.116;2023-05-31T01:35:35;10.70;99.90
25280;DHT22;13225;47.804;12.116;2023-05-31T01:38:01;10.80;99.90
25280;DHT22;13225;47.804;12.116;2023-05-31T01:40:27;10.80;99.90
25280;DHT22;13225;47.804;12.116;2023-05-31T01:42:53;10.80;99.90
25280;DHT22;13225;47.804;12.116;2023-05-31T01:45:19;10.70;99.90
25280;DHT22;13225;47.804;12.116;2023-05-31T01:47:47;10.60;99.90
25280;DHT22;13225;47.804;12.116;2023-05-31T01:50:14;10.50;99.90
25280;DHT22;13225;47.804;12.116;2023-05-31T01:52:40;10.50;99.90
25280;DHT22;13225;47.804;12.116;2023-05-31T01:55:07;10.50;99.90
25280;DHT22;13225;47.804;12.116;2023-05-31T01:57:33;10.50;99.90
25280;DHT22;13225;47.804;12.116;2023-05-31T02:00:01;10.50;99.90
25280;DHT22;13225;47.804;12.116;2023-05-31T02:05:06;10.60;99.90
25280;DHT22;13225;47.804;12.116;2023-05-31T02:07:42;10.60;99.90
25280;DHT22;13225;47.804;12.116;2023-05-31T02:10:09;10.50;99.90
25280;DHT22;13225;47.804;12.116;2023-05-31T02:12:35;10.40;99.90
25280;DHT22;13225;47.804;12.116;2023-05-31T02:15:02;10.30;99.90
25280;DHT22;13225;47.804;12.116;2023-05-31T02:17:28;10.30;99.90
25280;DHT22;13225;47.804;12.116;2023-05-31T02:19:58;10.20;99.90
25280;DHT22;13225;47.804;12.116;2023-05-31T02:22:24;10.20;99.90
25280;DHT22;13225;47.804;12.116;2023-05-31T02:24:50;10.20;99.90
25280;DHT22;13225;47.804;12.116;2023-05-31T02:27:15;10.20;99.90
25280;DHT22;13225;47.804;12.116;2023-05-31T02:29:41;10.20;99.90
25280;DHT22;13225;47.804;12.116;2023-05-31T02:32:07;10.20;99.90
25280;DHT22;13225;47.804;12.116;2023-05-31T02:34:33;10.20;99.90
25280;DHT22;13225;47.804;12.116;2023-05-31T02:37:00;10.20;99.90
25280;DHT22;13225;47.804;12.116;2023-05-31T02:39:25;10.20;99.90
25280;DHT22;13225;47.804;12.116;2023-05-31T02:41:51;10.20;99.90
25280;DHT22;13225;47.804;12.116;2023-05-31T02:44:17;10.10;99.90
25280;DHT22;13225;47.804;12.116;2023-05-31T02:46:42;10.20;99.90
25280;DHT22;13225;47.804;12.116;2023-05-31T02:49:08;10.10;99.90
25280;DHT22;13225;47.804;12.116;2023-05-31T02:51:34;10.10;99.90
25280;DHT22;13225;47.804;12.116;2023-05-31T02:54:00;10.10;99.90
25280;DHT22;13225;47.804;12.116;2023-05-31T02:56:26;10.00;99.90
25280;DHT22;13225;47.804;12.116;2023-05-31T02:58:52;10.00;99.90
25280;DHT22;13225;47.804;12.116;2023-05-31T03:01:17;10.00;99.90
25280;DHT22;13225;47.804;12.116;2023-05-31T03:03:43;9.90;99.90
25280;DHT22;13225;47.804;12.116;2023-05-31T03:06:09;9.90;99.90
25280;DHT22;13225;47.804;12.116;2023-05-31T03:08:34;9.90;99.90
25280;DHT22;13225;47.804;12.116;2023-05-31T03:11:00;9.90;99.90
25280;DHT22;13225;47.804;12.116;2023-05-31T03:13:25;9.80;99.90
25280;DHT22;13225;47.804;12.116;2023-05-31T03:15:51;9.80;99.90
25280;DHT22;13225;47.804;12.116;2023-05-31T03:18:16;9.80;99.90
25280;DHT22;13225;47.804;12.116;2023-05-31T03:20:42;9.70;99.90
25280;DHT22;13225;47.804;12.116;2023-05-31T03:23:08;9.70;99.90
25280;DHT22;13225;47.804;12.116;2023-05-31T03:25:33;9.70;99.90
25280;DHT22;13225;47.804;12.116;2023-05-31T03:27:59;9.70;99.90
25280;DHT22;13225;47.804;12.116;2023-05-31T03:30:25;9.70;99.90
25280;DHT22;13225;47.804;12.116;2023-05-31T03:32:51;9.70;99.90
25280;DHT22;13225;47.804;12.116;2023-05-31T03:35:17;9.60;99.90
25280;DHT22;13225;47.804;12.116;2023-05-31T03:37:43;9.70;99.90
25280;DHT22;13225;47.804;12.116;2023-05-31T03:40:09;9.70;99.90
25280;DHT22;13225;47.804;12.116;2023-05-31T03:42:35;9.70;99.90
25280;DHT22;13225;47.804;12.116;2023-05-31T03:45:01;9.70;99.90
25280;DHT22;13225;47.804;12.116;2023-05-31T03:47:26;9.70;99.90
25280;DHT22;13225;47.804;12.116;2023-05-31T03:49:52;9.60;99.90
25280;DHT22;13225;47.804;12.116;2023-05-31T03:52:18;9.60;99.90
25280;DHT22;13225;47.804;12.116;2023-05-31T03:54:43;9.70;99.90
25280;DHT22;13225;47.804;12.116;2023-05-31T03:57:09;9.70;99.90
25280;DHT22;13225;47.804;12.116;2023-05-31T03:59:35;9.60;99.90
25280;DHT22;13225;47.804;12.116;2023-05-31T04:02:02;9.80;99.90
25280;DHT22;13225;47.804;12.116;2023-05-31T04:04:28;10.10;99.90
25280;DHT22;13225;47.804;12.116;2023-05-31T04:06:54;10.40;99.90
25280;DHT22;13225;47.804;12.116;2023-05-31T04:09:20;10.70;99.90
25280;DHT22;13225;47.804;12.116;2023-05-31T04:11:46;11.20;99.90
25280;DHT22;13225;47.804;12.116;2023-05-31T04:14:12;11.60;99.90
25280;DHT22;13225;47.804;12.116;2023-05-31T04:16:37;11.90;99.90
25280;DHT22;13225;47.804;12.116;2023-05-31T04:19:03;12.10;99.90
25280;DHT22;13225;47.804;12.116;2023-05-31T04:21:28;12.50;99.90
25280;DHT22;13225;47.804;12.116;2023-05-31T04:23:54;12.90;99.90
25280;DHT22;13225;47.804;12.116;2023-05-31T04:26:20;13.10;99.90
25280;DHT22;13225;47.804;12.116;2023-05-31T04:28:46;12.70;99.90
25280;DHT22;13225;47.804;12.116;2023-05-31T04:31:18;12.50;99.90
25280;DHT22;13225;47.804;12.116;2023-05-31T04:33:43;12.80;99.90
25280;DHT22;13225;47.804;12.116;2023-05-31T04:36:09;13.50;99.90
25280;DHT22;13225;47.804;12.116;2023-05-31T04:38:35;13.80;99.90
25280;DHT22;13225;47.804;12.116;2023-05-31T04:41:01;13.90;99.90
25280;DHT22;13225;47.804;12.116;2023-05-31T04:43:26;13.90;99.90
25280;DHT22;13225;47.804;12.116;2023-05-31T04:45:52;14.80;99.90
25280;DHT22;13225;47.804;12.116;2023-05-31T04:48:19;15.20;99.90
25280;DHT22;13225;47.804;12.116;2023-05-31T04:50:45;15.40;99.90
25280;DHT22;13225;47.804;12.116;2023-05-31T04:53:12;15.10;99.90
25280;DHT22;13225;47.804;12.116;2023-05-31T04:55:38;14.90;99.90
25280;DHT22;13225;47.804;12.116;2023-05-31T04:58:03;14.70;99.90
25280;DHT22;13225;47.804;12.116;2023-05-31T05:00:29;14.70;99.90
25280;DHT22;13225;47.804;12.116;2023-05-31T05:02:55;15.00;99.90
25280;DHT22;13225;47.804;12.116;2023-05-31T05:05:22;15.30;99.90
25280;DHT22;13225;47.804;12.116;2023-05-31T05:07:48;15.50;99.90
25280;DHT22;13225;47.804;12.116;2023-05-31T05:10:15;15.60;99.90
25280;DHT22;13225;47.804;12.116;2023-05-31T05:12:40;15.90;99.90
25280;DHT22;13225;47.804;12.116;2023-05-31T05:15:06;15.70;99.90
25280;DHT22;13225;47.804;12.116;2023-05-31T05:17:32;16.10;99.90
25280;DHT22;13225;47.804;12.116;2023-05-31T05:19:58;16.40;99.90
25280;DHT22;13225;47.804;12.116;2023-05-31T05:22:24;16.60;99.90
25280;DHT22;13225;47.804;12.116;2023-05-31T05:24:50;16.70;99.90
25280;DHT22;13225;47.804;12.116;2023-05-31T05:27:15;15.80;99.90
25280;DHT22;13225;47.804;12.116;2023-05-31T05:29:41;15.40;99.90
25280;DHT22;13225;47.804;12.116;2023-05-31T05:32:07;14.80;99.90
25280;DHT22;13225;47.804;12.116;2023-05-31T05:34:33;14.70;99.90
25280;DHT22;13225;47.804;12.116;2023-05-31T05:36:58;14.60;99.90
25280;DHT22;13225;47.804;12.116;2023-05-31T05:39:24;14.40;99.90
25280;DHT22;13225;47.804;12.116;2023-05-31T05:41:50;13.80;99.90
25280;DHT22;13225;47.804;12.116;2023-05-31T05:44:15;13.90;99.90
25280;DHT22;13225;47.804;12.116;2023-05-31T05:46:41;14.10;99.90
25280;DHT22;13225;47.804;12.116;2023-05-31T05:49:06;14.00;99.90
25280;DHT22;13225;47.804;12.116;2023-05-31T05:51:32;14.10;99.90
25280;DHT22;13225;47.804;12.116;2023-05-31T05:53:57;14.40;99.90
25280;DHT22;13225;47.804;12.116;2023-05-31T05:56:23;14.20;99.90
25280;DHT22;13225;47.804;12.116;2023-05-31T05:58:48;14.30;99.90
25280;DHT22;13225;47.804;12.116;2023-05-31T06:01:14;14.50;99.90
25280;DHT22;13225;47.804;12.116;2023-05-31T06:03:48;14.80;99.90
25280;DHT22;13225;47.804;12.116;2023-05-31T06:06:14;14.90;99.90
25280;DHT22;13225;47.804;12.116;2023-05-31T06:08:42;15.00;99.90
25280;DHT22;13225;47.804;12.116;2023-05-31T06:11:08;14.80;99.90
25280;DHT22;13225;47.804;12.116;2023-05-31T06:13:33;14.80;99.90
25280;DHT22;13225;47.804;12.116;2023-05-31T06:15:59;14.70;99.90
25280;DHT22;13225;47.804;12.116;2023-05-31T06:18:25;14.80;99.90
25280;DHT22;13225;47.804;12.116;2023-05-31T06:20:50;14.80;99.90
25280;DHT22;13225;47.804;12.116;2023-05-31T06:23:16;14.90;99.90
25280;DHT22;13225;47.804;12.116;2023-05-31T06:25:41;15.00;99.90
25280;DHT22;13225;47.804;12.116;2023-05-31T06:28:08;14.90;99.90
25280;DHT22;13225;47.804;12.116;2023-05-31T06:30:33;15.00;99.90
25280;DHT22;13225;47.804;12.116;2023-05-31T06:32:59;15.10;99.90
25280;DHT22;13225;47.804;12.116;2023-05-31T06:35:25;15.30;99.90
25280;DHT22;13225;47.804;12.116;2023-05-31T06:37:50;15.40;99.90
25280;DHT22;13225;47.804;12.116;2023-05-31T06:40:19;15.40;99.90
25280;DHT22;13225;47.804;12.116;2023-05-31T06:42:44;15.40;99.90
25280;DHT22;13225;47.804;12.116;2023-05-31T06:45:10;15.30;99.90
25280;DHT22;13225;47.804;12.116;2023-05-31T06:47:35;15.40;99.90
25280;DHT22;13225;47.804;12.116;2023-05-31T06:50:01;15.60;99.90
25280;DHT22;13225;47.804;12.116;2023-05-31T06:52:28;15.70;99.90
25280;DHT22;13225;47.804;12.116;2023-05-31T06:54:53;15.70;99.90
25280;DHT22;13225;47.804;12.116;2023-05-31T06:57:19;15.70;99.90
25280;DHT22;13225;47.804;12.116;2023-05-31T06:59:45;15.80;99.90
25280;DHT22;13225;47.804;12.116;2023-05-31T07:02:10;15.60;99.90
25280;DHT22;13225;47.804;12.116;2023-05-31T07:04:36;15.90;99.90
25280;DHT22;13225;47.804;12.116;2023-05-31T07:07:02;16.00;99.90
25280;DHT22;13225;47.804;12.116;2023-05-31T07:09:29;16.10;99.90
25280;DHT22;13225;47.804;12.116;2023-05-31T07:11:55;16.00;99.90
25280;DHT22;13225;47.804;12.116;2023-05-31T07:14:21;16.00;99.90
25280;DHT22;13225;47.804;12.116;2023-05-31T07:16:50;16.00;99.90
25280;DHT22;13225;47.804;12.116;2023-05-31T07:19:21;16.10;99.90
25280;DHT22;13225;47.804;12.116;2023-05-31T07:21:46;16.30;99.90
25280;DHT22;13225;47.804;12.116;2023-05-31T07:24:12;16.30;99.90
25280;DHT22;13225;47.804;12.116;2023-05-31T07:26:38;16.40;99.90
25280;DHT22;13225;47.804;12.116;2023-05-31T07:29:04;16.30;99.90
25280;DHT22;13225;47.804;12.116;2023-05-31T07:31:32;16.40;99.90
25280;DHT22;13225;47.804;12.116;2023-05-31T07:34:06;16.70;99.90
25280;DHT22;13225;47.804;12.116;2023-05-31T07:36:37;16.80;99.90
25280;DHT22;13225;47.804;12.116;2023-05-31T07:39:05;16.50;99.90
25280;DHT22;13225;47.804;12.116;2023-05-31T07:41:31;16.80;99.90
25280;DHT22;13225;47.804;12.116;2023-05-31T07:44:02;17.00;99.90
25280;DHT22;13225;47.804;12.116;2023-05-31T07:46:37;17.10;99.90
25280;DHT22;13225;47.804;12.116;2023-05-31T07:49:12;17.30;99.90
25280;DHT22;13225;47.804;12.116;2023-05-31T07:51:38;17.30;99.90
25280;DHT22;13225;47.804;12.116;2023-05-31T07:54:04;17.40;99.90
25280;DHT22;13225;47.804;12.116;2023-05-31T07:56:40;17.50;99.90
25280;DHT22;13225;47.804;12.116;2023-05-31T07:59:06;17.60;99.90
25280;DHT22;13225;47.804;12.116;2023-05-31T08:01:38;17.90;99.90
25280;DHT22;13225;47.804;12.116;2023-05-31T08:04:13;17.90;99.90
25280;DHT22;13225;47.804;12.116;2023-05-31T08:06:39;18.00;99.90
25280;DHT22;13225;47.804;12.116;2023-05-31T08:09:10;18.10;99.90
25280;DHT22;13225;47.804;12.116;2023-05-31T08:11:38;18.10;99.90
25280;DHT22;13225;47.804;12.116;2023-05-31T08:14:07;18.10;99.90
25280;DHT22;13225;47.804;12.116;2023-05-31T08:16:33;18.20;99.90
25280;DHT22;13225;47.804;12.116;2023-05-31T08:19:01;18.20;99.90
25280;DHT22;13225;47.804;12.116;2023-05-31T08:21:30;18.40;99.90
25280;DHT22;13225;47.804;12.116;2023-05-31T08:23:57;18.50;99.90
25280;DHT22;13225;47.804;12.116;2023-05-31T08:26:23;18.70;99.90
25280;DHT22;13225;47.804;12.116;2023-05-31T08:28:50;18.60;99.90
25280;DHT22;13225;47.804;12.116;2023-05-31T08:31:23;18.70;99.90
25280;DHT22;13225;47.804;12.116;2023-05-31T08:33:55;18.70;99.90
25280;DHT22;13225;47.804;12.116;2023-05-31T08:36:24;18.80;99.90
25280;DHT22;13225;47.804;12.116;2023-05-31T08:38:52;18.80;99.90
25280;DHT22;13225;47.804;12.116;2023-05-31T08:41:21;18.80;99.90
25280;DHT22;13225;47.804;12.116;2023-05-31T08:43:47;18.90;99.90
25280;DHT22;13225;47.804;12.116;2023-05-31T08:46:15;19.00;99.90
25280;DHT22;13225;47.804;12.116;2023-05-31T08:48:56;19.00;99.90
25280;DHT22;13225;47.804;12.116;2023-05-31T08:51:26;19.10;99.90
25280;DHT22;13225;47.804;12.116;2023-05-31T08:53:55;19.10;99.90
25280;DHT22;13225;47.804;12.116;2023-05-31T08:56:22;19.30;99.90
25280;DHT22;13225;47.804;12.116;2023-05-31T08:58:57;19.40;99.90
25280;DHT22;13225;47.804;12.116;2023-05-31T09:01:28;19.40;99.90
25280;DHT22;13225;47.804;12.116;2023-05-31T09:03:56;19.40;99.90
25280;DHT22;13225;47.804;12.116;2023-05-31T09:06:27;19.50;99.90
25280;DHT22;13225;47.804;12.116;2023-05-31T09:08:59;19.60;99.90
25280;DHT22;13225;47.804;12.116;2023-05-31T09:11:25;19.50;99.90
25280;DHT22;13225;47.804;12.116;2023-05-31T09:13:52;19.70;99.90
25280;DHT22;13225;47.804;12.116;2023-05-31T09:16:20;19.80;99.90
25280;DHT22;13225;47.804;12.116;2023-05-31T09:18:46;19.90;99.90
25280;DHT22;13225;47.804;12.116;2023-05-31T09:21:14;20.00;99.90
25280;DHT22;13225;47.804;12.116;2023-05-31T09:23:53;20.00;99.90
25280;DHT22;13225;47.804;12.116;2023-05-31T09:26:19;19.90;99.90
25280;DHT22;13225;47.804;12.116;2023-05-31T09:28:53;19.90;99.90
25280;DHT22;13225;47.804;12.116;2023-05-31T09:31:24;20.10;99.90
25280;DHT22;13225;47.804;12.116;2023-05-31T09:33:51;20.20;99.90
25280;DHT22;13225;47.804;12.116;2023-05-31T09:36:30;20.30;99.90
25280;DHT22;13225;47.804;12.116;2023-05-31T09:39:07;20.30;99.90
25280;DHT22;13225;47.804;12.116;2023-05-31T09:41:34;20.40;99.90
25280;DHT22;13225;47.804;12.116;2023-05-31T09:44:01;20.40;99.90
25280;DHT22;13225;47.804;12.116;2023-05-31T09:46:27;20.40;99.90
25280;DHT22;13225;47.804;12.116;2023-05-31T09:49:06;20.50;99.90
25280;DHT22;13225;47.804;12.116;2023-05-31T09:51:35;20.40;99.90
25280;DHT22;13225;47.804;12.116;2023-05-31T09:54:14;20.50;99.90
25280;DHT22;13225;47.804;12.116;2023-05-31T09:56:40;20.50;99.90
25280;DHT22;13225;47.804;12.116;2023-05-31T09:59:12;20.60;99.90
25280;DHT22;13225;47.804;12.116;2023-05-31T10:01:40;20.60;99.90
25280;DHT22;13225;47.804;12.116;2023-05-31T10:04:07;20.60;99.90
25280;DHT22;13225;47.804;12.116;2023-05-31T10:06:32;20.70;99.90
25280;DHT22;13225;47.804;12.116;2023-05-31T10:09:10;20.80;99.90
25280;DHT22;13225;47.804;12.116;2023-05-31T10:11:42;20.80;99.90
25280;DHT22;13225;47.804;12.116;2023-05-31T10:14:18;20.80;99.90
25280;DHT22;13225;47.804;12.116;2023-05-31T10:16:49;20.80;99.90
25280;DHT22;13225;47.804;12.116;2023-05-31T10:19:49;20.90;99.90
25280;DHT22;13225;47.804;12.116;2023-05-31T10:22:17;21.10;99.90
25280;DHT22;13225;47.804;12.116;2023-05-31T10:25:04;21.20;99.90
25280;DHT22;13225;47.804;12.116;2023-05-31T10:27:37;21.40;99.90
25280;DHT22;13225;47.804;12.116;2023-05-31T10:30:09;21.40;99.90
25280;DHT22;13225;47.804;12.116;2023-05-31T10:32:50;21.40;99.90
25280;DHT22;13225;47.804;12.116;2023-05-31T10:35:22;21.50;99.90
25280;DHT22;13225;47.804;12.116;2023-05-31T10:37:50;21.60;99.90
25280;DHT22;13225;47.804;12.116;2023-05-31T10:40:28;21.80;99.60
25280;DHT22;13225;47.804;12.116;2023-05-31T10:43:24;21.90;98.80
25280;DHT22;13225;47.804;12.116;2023-05-31T10:46:04;21.80;98.50
25280;DHT22;13225;47.804;12.116;2023-05-31T10:48:45;21.90;98.40
25280;DHT22;13225;47.804;12.116;2023-05-31T10:51:15;22.00;98.10
25280;DHT22;13225;47.804;12.116;2023-05-31T10:53:43;22.00;98.30
25280;DHT22;13225;47.804;12.116;2023-05-31T10:56:16;22.10;98.40
25280;DHT22;13225;47.804;12.116;2023-05-31T10:58:50;22.20;97.60
25280;DHT22;13225;47.804;12.116;2023-05-31T11:01:19;22.30;96.40
25280;DHT22;13225;47.804;12.116;2023-05-31T11:03:51;22.30;97.70
25280;DHT22;13225;47.804;12.116;2023-05-31T11:06:31;22.60;98.00
25280;DHT22;13225;47.804;12.116;2023-05-31T11:09:00;22.70;96.70
25280;DHT22;13225;47.804;12.116;2023-05-31T11:14:00;22.60;97.10
25280;DHT22;13225;47.804;12.116;2023-05-31T11:16:31;22.60;96.40
25280;DHT22;13225;47.804;12.116;2023-05-31T11:19:07;22.70;96.40
25280;DHT22;13225;47.804;12.116;2023-05-31T11:21:50;22.80;95.90
25280;DHT22;13225;47.804;12.116;2023-05-31T11:24:53;22.80;96.10
25280;DHT22;13225;47.804;12.116;2023-05-31T11:27:38;22.90;94.90
25280;DHT22;13225;47.804;12.116;2023-05-31T11:30:13;23.00;95.90
25280;DHT22;13225;47.804;12.116;2023-05-31T11:32:56;23.10;94.60
25280;DHT22;13225;47.804;12.116;2023-05-31T11:35:23;23.10;93.50
25280;DHT22;13225;47.804;12.116;2023-05-31T11:37:49;23.10;93.50
25280;DHT22;13225;47.804;12.116;2023-05-31T11:40:20;23.20;94.50
25280;DHT22;13225;47.804;12.116;2023-05-31T11:42:46;23.40;94.20
25280;DHT22;13225;47.804;12.116;2023-05-31T11:45:20;23.60;93.10
25280;DHT22;13225;47.804;12.116;2023-05-31T11:50:33;23.90;92.10
25280;DHT22;13225;47.804;12.116;2023-05-31T11:53:06;24.10;92.40
25280;DHT22;13225;47.804;12.116;2023-05-31T11:55:32;23.90;91.30
25280;DHT22;13225;47.804;12.116;2023-05-31T11:58:04;23.90;91.70
25280;DHT22;13225;47.804;12.116;2023-05-31T12:00:32;23.90;91.00
25280;DHT22;13225;47.804;12.116;2023-05-31T12:02:58;23.80;91.40
25280;DHT22;13225;47.804;12.116;2023-05-31T12:05:33;24.00;91.50
25280;DHT22;13225;47.804;12.116;2023-05-31T12:08:02;24.10;90.60
25280;DHT22;13225;47.804;12.116;2023-05-31T12:10:30;24.00;90.30
25280;DHT22;13225;47.804;12.116;2023-05-31T12:13:05;24.00;90.20
25280;DHT22;13225;47.804;12.116;2023-05-31T12:15:36;24.10;89.90
25280;DHT22;13225;47.804;12.116;2023-05-31T12:18:02;24.30;90.40
25280;DHT22;13225;47.804;12.116;2023-05-31T12:20:35;24.30;90.00
25280;DHT22;13225;47.804;12.116;2023-05-31T12:23:32;24.50;90.50
25280;DHT22;13225;47.804;12.116;2023-05-31T12:26:00;24.70;88.00
25280;DHT22;13225;47.804;12.116;2023-05-31T12:28:27;24.70;89.20
25280;DHT22;13225;47.804;12.116;2023-05-31T12:30:59;24.90;88.50
25280;DHT22;13225;47.804;12.116;2023-05-31T12:33:25;25.10;86.90
25280;DHT22;13225;47.804;12.116;2023-05-31T12:35:55;25.10;84.00
25280;DHT22;13225;47.804;12.116;2023-05-31T12:38:28;25.30;83.40
25280;DHT22;13225;47.804;12.116;2023-05-31T12:40:56;25.40;83.90
25280;DHT22;13225;47.804;12.116;2023-05-31T12:43:22;25.70;82.90
25280;DHT22;13225;47.804;12.116;2023-05-31T12:45:48;26.10;82.30
25280;DHT22;13225;47.804;12.116;2023-05-31T12:48:16;26.50;81.20
25280;DHT22;13225;47.804;12.116;2023-05-31T12:50:47;27.00;80.60
25280;DHT22;13225;47.804;12.116;2023-05-31T12:53:14;27.30;76.40
25280;DHT22;13225;47.804;12.116;2023-05-31T12:55:40;27.10;77.20
25280;DHT22;13225;47.804;12.116;2023-05-31T12:58:06;27.30;77.20
25280;DHT22;13225;47.804;12.116;2023-05-31T13:00:33;27.60;77.10
25280;DHT22;13225;47.804;12.116;2023-05-31T13:03:01;27.90;74.40
25280;DHT22;13225;47.804;12.116;2023-05-31T13:05:30;28.00;75.10
25280;DHT22;13225;47.804;12.116;2023-05-31T13:08:02;27.90;75.00
25280;DHT22;13225;47.804;12.116;2023-05-31T13:10:28;27.80;73.20
25280;DHT22;13225;47.804;12.116;2023-05-31T13:12:58;27.90;74.10
25280;DHT22;13225;47.804;12.116;2023-05-31T13:15:27;27.50;71.70
25280;DHT22;13225;47.804;12.116;2023-05-31T13:17:53;27.90;73.80
25280;DHT22;13225;47.804;12.116;2023-05-31T13:20:24;27.60;72.50
25280;DHT22;13225;47.804;12.116;2023-05-31T13:22:50;27.60;72.80
25280;DHT22;13225;47.804;12.116;2023-05-31T13:25:19;27.90;72.20
25280;DHT22;13225;47.804;12.116;2023-05-31T13:27:45;27.80;73.70
25280;DHT22;13225;47.804;12.116;2023-05-31T13:30:14;28.00;75.40
25280;DHT22;13225;47.804;12.116;2023-05-31T13:32:46;28.80;72.50
25280;DHT22;13225;47.804;12.116;2023-05-31T13:35:14;29.10;71.70
25280;DHT22;13225;47.804;12.116;2023-05-31T13:37:40;28.80;70.50
25280;DHT22;13225;47.804;12.116;2023-05-31T13:40:07;28.30;70.10
25280;DHT22;13225;47.804;12.116;2023-05-31T13:42:33;28.00;71.60
25280;DHT22;13225;47.804;12.116;2023-05-31T13:44:59;28.00;71.70
25280;DHT22;13225;47.804;12.116;2023-05-31T13:47:27;28.00;72.40
25280;DHT22;13225;47.804;12.116;2023-05-31T13:49:53;28.20;71.70
25280;DHT22;13225;47.804;12.116;2023-05-31T13:52:23;28.20;73.60
25280;DHT22;13225;47.804;12.116;2023-05-31T13:54:51;28.30;72.10
25280;DHT22;13225;47.804;12.116;2023-05-31T13:57:17;28.60;71.20
25280;DHT22;13225;47.804;12.116;2023-05-31T13:59:43;28.80;70.60
25280;DHT22;13225;47.804;12.116;2023-05-31T14:02:09;29.00;69.90
25280;DHT22;13225;47.804;12.116;2023-05-31T14:04:38;29.00;71.20
25280;DHT22;13225;47.804;12.116;2023-05-31T14:07:04;28.90;70.50
25280;DHT22;13225;47.804;12.116;2023-05-31T14:09:33;28.90;71.60
25280;DHT22;13225;47.804;12.116;2023-05-31T14:12:06;29.20;69.10
25280;DHT22;13225;47.804;12.116;2023-05-31T14:14:33;29.10;69.40
25280;DHT22;13225;47.804;12.116;2023-05-31T14:16:59;29.30;69.20
25280;DHT22;13225;47.804;12.116;2023-05-31T14:19:28;29.70;68.90
25280;DHT22;13225;47.804;12.116;2023-05-31T14:21:54;29.60;69.30
25280;DHT22;13225;47.804;12.116;2023-05-31T14:24:20;29.40;69.10
25280;DHT22;13225;47.804;12.116;2023-05-31T14:26:46;29.30;68.60
25280;DHT22;13225;47.804;12.116;2023-05-31T14:29:12;29.10;68.30
25280;DHT22;13225;47.804;12.116;2023-05-31T14:31:40;28.70;68.40
25280;DHT22;13225;47.804;12.116;2023-05-31T14:34:06;28.60;69.60
25280;DHT22;13225;47.804;12.116;2023-05-31T14:36:34;28.60;70.50
25280;DHT22;13225;47.804;12.116;2023-05-31T14:39:02;29.00;68.90
25280;DHT22;13225;47.804;12.116;2023-05-31T14:41:29;29.20;68.80
25280;DHT22;13225;47.804;12.116;2023-05-31T14:43:55;29.50;68.20
25280;DHT22;13225;47.804;12.116;2023-05-31T14:46:21;29.10;67.20
25280;DHT22;13225;47.804;12.116;2023-05-31T14:48:46;29.40;68.40
25280;DHT22;13225;47.804;12.116;2023-05-31T14:51:12;29.30;67.70
25280;DHT22;13225;47.804;12.116;2023-05-31T14:53:41;29.40;67.80
25280;DHT22;13225;47.804;12.116;2023-05-31T14:56:10;29.70;67.30
25280;DHT22;13225;47.804;12.116;2023-05-31T14:58:35;29.50;66.10
25280;DHT22;13225;47.804;12.116;2023-05-31T15:01:04;29.40;66.70
25280;DHT22;13225;47.804;12.116;2023-05-31T15:03:32;28.90;67.30
25280;DHT22;13225;47.804;12.116;2023-05-31T15:05:58;28.90;67.00
25280;DHT22;13225;47.804;12.116;2023-05-31T15:08:24;28.80;66.70
25280;DHT22;13225;47.804;12.116;2023-05-31T15:10:51;29.00;66.60
25280;DHT22;13225;47.804;12.116;2023-05-31T15:13:17;29.20;67.10
25280;DHT22;13225;47.804;12.116;2023-05-31T15:15:45;29.60;65.80
25280;DHT22;13225;47.804;12.116;2023-05-31T15:18:16;29.60;66.40
25280;DHT22;13225;47.804;12.116;2023-05-31T15:20:42;29.50;66.50
25280;DHT22;13225;47.804;12.116;2023-05-31T15:23:08;29.50;65.40
25280;DHT22;13225;47.804;12.116;2023-05-31T15:25:37;29.30;65.90
25280;DHT22;13225;47.804;12.116;2023-05-31T15:28:03;29.30;65.50
25280;DHT22;13225;47.804;12.116;2023-05-31T15:30:29;29.20;64.50
25280;DHT22;13225;47.804;12.116;2023-05-31T15:33:03;29.40;65.40
25280;DHT22;13225;47.804;12.116;2023-05-31T15:35:29;29.30;65.00
25280;DHT22;13225;47.804;12.116;2023-05-31T15:38:00;29.00;66.40
25280;DHT22;13225;47.804;12.116;2023-05-31T15:40:28;29.30;66.10